Time;durP1;ratioP1;P1;durP2;ratioP2;P2;SDS_P1;SDS_P2;PMS_P1;PMS_P2;Temp;Humidity;BMP_temperature;BMP_pressure;BME280_temperature;BME280_humidity;BME280_pressure;Samples;Min_cycle;Max_cycle;Signal;HPM_P1;HPM_P2
2022/03/11 00:02:51;;;;;;;28.07;23.27;;;;;;;7.13;39.96;98550.75;8348199;28;20243;-65
2022/03/11 00:06:55;;;;;;;24.83;19.60;;;;;;;7.21;49.70;98548.84;8349481;28;20278;-65
2022/03/11 00:10:59;;;;;;;27.77;23.43;;;;;;;7.03;40.06;98549.25;8349668;28;20404;-65
2022/03/11 00:15:02;;;;;;;30.40;23.47;;;;;;;6.95;40.17;98566.56;8349225;28;20429;-65
2022/03/11 00:19:05;;;;;;;29.53;24.00;;;;;;;6.52;41.54;98557.13;8348922;28;20228;-65
2022/03/11 00:23:09;;;;;;;26.30;22.93;;;;;;;6.39;41.85;98552.19;8349142;28;20239;-65
2022/03/11 00:27:14;;;;;;;26.80;23.67;;;;;;;6.52;41.47;98557.13;8348950;28;20232;-65
2022/03/11 00:31:17;;;;;;;29.43;23.50;;;;;;;6.37;41.67;98547.97;8348793;28;20405;-65
2022/03/11 00:35:21;;;;;;;26.97;23.00;;;;;;;6.44;41.80;98547.81;8348087;28;20241;-65
2022/03/11 00:39:23;;;;;;;28.43;24.10;;;;;;;6.49;41.31;98545.16;8348146;28;20454;-65
2022/03/11 00:43:28;;;;;;;30.43;23.63;;;;;;;6.69;40.74;98555.09;8348040;28;20236;-65
2022/03/11 00:47:31;;;;;;;26.53;22.33;;;;;;;6.57;41.09;98545.88;8347491;28;20239;-66
2022/03/11 00:51:34;;;;;;;27.17;23.33;;;;;;;6.46;41.41;98543.50;8348114;28;20236;-66
2022/03/11 00:55:38;;;;;;;26.47;22.97;;;;;;;6.23;41.95;98537.94;8348038;28;20534;-66
2022/03/11 00:59:42;;;;;;;26.80;23.30;;;;;;;6.29;41.71;98542.97;8353657;28;20235;-67
2022/03/11 01:03:45;;;;;;;30.17;24.20;;;;;;;5.91;42.67;98539.28;8347641;28;20239;-66
2022/03/11 01:07:48;;;;;;;28.60;23.70;;;;;;;5.94;42.67;98534.09;8347560;28;20248;-66
2022/03/11 01:11:51;;;;;;;28.07;22.97;;;;;;;5.95;42.49;98534.94;8347848;28;20246;-66
2022/03/11 01:15:55;;;;;;;29.03;24.33;;;;;;;5.67;43.17;98528.53;8347792;28;20232;-67
2022/03/11 01:19:59;;;;;;;27.90;23.90;;;;;;;6.04;42.51;98519.41;8351035;28;20238;-67
2022/03/11 01:24:01;;;;;;;27.37;23.03;;;;;;;5.71;43.02;98525.91;8354082;28;20232;-67
2022/03/11 01:28:04;;;;;;;27.87;23.37;;;;;;;6.06;42.11;98522.78;8354414;28;20232;-66
2022/03/11 01:32:09;;;;;;;26.93;24.03;;;;;;;5.65;42.43;98522.56;8354013;28;20228;-66
2022/03/11 01:36:13;;;;;;;27.23;23.43;;;;;;;6.35;41.39;98521.41;8353509;28;20569;-66
2022/03/11 01:40:16;;;;;;;29.53;23.67;;;;;;;6.67;40.42;98523.38;8353850;28;20258;-66
2022/03/11 01:44:19;;;;;;;29.87;23.70;;;;;;;6.40;40.74;98522.19;8354829;28;20232;-66
2022/03/11 01:48:23;;;;;;;30.20;24.17;;;;;;;6.67;39.97;98523.38;8355373;28;20228;-66
2022/03/11 01:52:26;;;;;;;25.77;22.07;;;;;;;6.70;39.90;98519.88;8355633;28;20200;-66
2022/03/11 01:56:30;;;;;;;28.37;23.77;;;;;;;6.54;40.22;98519.34;8355523;28;20204;-65
2022/03/11 02:00:35;;;;;;;29.43;24.37;;;;;;;5.86;41.39;98510.22;8354678;28;20204;-66
2022/03/11 02:04:41;;;;;;;26.70;22.97;;;;;;;5.83;41.44;98520.56;8352812;28;20251;-66
2022/03/11 02:08:44;;;;;;;26.27;23.43;;;;;;;6.06;40.95;98507.34;8352890;28;20546;-66
2022/03/11 02:12:47;;;;;;;27.97;23.13;;;;;;;6.07;40.70;98509.91;8352897;28;20244;-66
2022/03/11 02:16:50;;;;;;;26.80;23.90;;;;;;;5.84;40.82;98505.09;8352955;28;20236;-66
2022/03/11 02:20:54;;;;;;;26.60;22.53;;;;;;;5.91;40.55;98507.59;8352526;28;20228;-66
2022/03/11 02:24:59;;;;;;;26.37;22.33;;;;;;;5.87;40.39;98505.06;8352650;28;20239;-66
2022/03/11 02:29:03;;;;;;;24.23;21.70;;;;;;;6.05;39.94;98498.81;8352150;28;20239;-65
2022/03/11 02:33:06;;;;;;;24.67;21.43;;;;;;;5.67;39.94;98499.41;8352216;28;20227;-66
2022/03/11 02:37:09;;;;;;;25.73;21.07;;;;;;;5.51;39.87;98490.25;8352126;28;20238;-66
2022/03/11 02:41:13;;;;;;;23.83;20.10;;;;;;;5.53;39.67;98480.78;8351926;28;20259;-66
2022/03/11 02:45:16;;;;;;;21.77;19.40;;;;;;;4.82;40.89;98484.38;8351957;28;20239;-66
2022/03/11 02:49:19;;;;;;;27.53;19.90;;;;;;;4.80;40.13;98481.00;8351716;28;20580;-66
2022/03/11 02:53:22;;;;;;;21.73;18.50;;;;;;;4.46;40.76;98484.78;8351677;28;20551;-66
2022/03/11 02:57:27;;;;;;;22.47;18.77;;;;;;;4.37;41.10;98482.34;8351645;28;20248;-66
2022/03/11 03:01:30;;;;;;;21.70;18.23;;;;;;;4.34;40.96;98478.94;8351653;28;20243;-66
2022/03/11 03:05:33;;;;;;;22.47;19.13;;;;;;;4.44;40.45;98478.00;8351213;28;20228;-66
2022/03/11 03:09:41;;;;;;;21.70;18.73;;;;;;;4.26;40.94;98473.91;8350564;28;20236;-67
2022/03/11 03:13:46;;;;;;;21.07;18.83;;;;;;;4.55;40.38;98483.84;8350995;28;20295;-66
2022/03/11 03:17:49;;;;;;;19.63;17.53;;;;;;;4.39;40.45;98475.47;8350913;28;20342;-66
2022/03/11 03:21:52;;;;;;;21.33;17.60;;;;;;;4.28;40.03;98479.88;8351143;28;20255;-66
2022/03/11 03:25:55;;;;;;;19.60;17.50;;;;;;;4.03;39.92;98467.28;8350630;28;20331;-66
2022/03/11 03:29:59;;;;;;;22.27;16.40;;;;;;;3.52;40.79;98465.22;8350529;28;20232;-66
2022/03/11 03:34:03;;;;;;;20.60;15.97;;;;;;;4.11;39.66;98468.09;8350717;28;20232;-65
2022/03/11 03:38:06;;;;;;;23.97;17.30;;;;;;;3.98;39.94;98463.09;8350362;28;20236;-66
2022/03/11 03:42:10;;;;;;;18.93;16.93;;;;;;;3.70;39.69;98459.06;8349433;28;20608;-66
2022/03/11 03:46:14;;;;;;;20.00;15.70;;;;;;;3.42;40.77;98455.88;8350022;28;20239;-66
2022/03/11 03:50:17;;;;;;;19.23;15.33;;;;;;;3.42;40.11;98450.78;8349906;28;20236;-66
2022/03/11 03:54:20;;;;;;;21.13;16.30;;;;;;;3.71;39.63;98455.66;8349714;28;20236;-66
2022/03/11 03:58:23;;;;;;;16.83;14.97;;;;;;;3.76;39.43;98450.50;8349661;28;20236;-65
2022/03/11 04:02:28;;;;;;;17.83;14.27;;;;;;;3.71;39.20;98455.66;8349302;28;20236;-65
2022/03/11 04:06:31;;;;;;;17.80;14.60;;;;;;;3.74;38.62;98451.38;8349159;28;20295;-67
2022/03/11 04:10:35;;;;;;;16.10;13.70;;;;;;;3.78;38.13;98451.31;8349178;28;20318;-66
2022/03/11 04:14:38;;;;;;;15.17;13.07;;;;;;;3.75;37.99;98445.38;8349221;28;20238;-66
2022/03/11 04:18:42;;;;;;;18.00;13.33;;;;;;;4.04;37.13;98451.06;8348981;28;20236;-65
2022/03/11 04:22:46;;;;;;;15.20;12.80;;;;;;;3.73;37.15;98445.38;8349008;28;20267;-65
2022/03/11 04:26:49;;;;;;;14.80;12.17;;;;;;;3.96;36.72;98452.00;8348984;28;20236;-65
2022/03/11 04:30:52;;;;;;;18.10;13.03;;;;;;;3.50;37.26;98453.25;8348697;28;20228;-65
2022/03/11 04:34:57;;;;;;;14.10;11.60;;;;;;;3.54;36.74;98447.25;8348944;28;20231;-65
2022/03/11 04:39:00;;;;;;;13.70;12.00;;;;;;;3.79;36.21;98445.34;8348952;28;20239;-66
2022/03/11 04:43:03;;;;;;;14.23;11.90;;;;;;;3.59;36.37;98440.38;8348759;28;20239;-65
2022/03/11 04:47:07;;;;;;;14.40;10.77;;;;;;;3.52;36.14;98431.94;8348438;28;20232;-65
2022/03/11 04:51:11;;;;;;;14.20;11.30;;;;;;;3.57;36.11;98436.16;8348278;28;20236;-66
2022/03/11 04:55:15;;;;;;;12.80;10.97;;;;;;;3.27;36.07;98438.09;8347584;28;20239;-65
2022/03/11 04:59:18;;;;;;;12.60;10.70;;;;;;;3.28;36.48;98438.09;8348614;28;20242;-66
2022/03/11 05:03:21;;;;;;;15.73;11.10;;;;;;;2.87;36.59;98436.63;8347949;28;20538;-66
2022/03/11 05:07:26;;;;;;;14.50;11.03;;;;;;;2.68;36.98;98433.34;8347785;28;20236;-66
2022/03/11 05:11:29;;;;;;;14.13;10.47;;;;;;;3.13;36.17;98435.63;8347473;28;20267;-65
2022/03/11 05:15:34;;;;;;;15.77;10.73;;;;;;;2.93;36.48;98425.53;8347176;28;20228;-67
2022/03/11 05:19:39;;;;;;;13.03;10.53;;;;;;;2.94;35.73;98424.66;8347148;28;20242;-66
2022/03/11 05:23:43;;;;;;;14.87;10.97;;;;;;;2.90;35.75;98440.91;8347418;28;20252;-66
2022/03/11 05:27:46;;;;;;;12.23;10.20;;;;;;;2.87;35.94;98434.06;8347637;28;20537;-66
2022/03/11 05:31:49;;;;;;;12.97;9.90;;;;;;;3.53;34.77;98437.88;8347404;28;20560;-66
2022/03/11 05:35:53;;;;;;;14.73;10.37;;;;;;;3.62;34.31;98431.84;8347413;28;20227;-66
2022/03/11 05:39:58;;;;;;;11.97;9.83;;;;;;;3.97;33.79;98439.19;8347020;28;20265;-66
2022/03/11 05:44:01;;;;;;;13.03;9.53;;;;;;;3.69;33.56;98436.91;8347388;28;20254;-66
2022/03/11 05:48:05;;;;;;;11.87;9.53;;;;;;;3.60;33.63;98449.78;8347143;28;20573;-66
2022/03/11 05:52:08;;;;;;;13.07;9.27;;;;;;;3.45;34.15;98455.88;8346681;28;20415;-66
2022/03/11 05:56:12;;;;;;;13.63;9.43;;;;;;;3.76;33.71;98454.78;8345299;28;20535;-65
2022/03/11 06:00:16;;;;;;;11.80;9.47;;;;;;;3.76;33.82;98457.34;8345365;28;20239;-67
2022/03/11 06:04:19;;;;;;;18.53;9.70;;;;;;;3.73;33.85;98455.63;8345577;28;20228;-66
2022/03/11 06:08:23;;;;;;;12.47;9.27;;;;;;;4.02;33.07;98464.78;8352217;28;20282;-66
2022/03/11 06:12:27;;;;;;;12.87;9.67;;;;;;;5.14;31.33;98455.69;8352089;28;20427;-66
2022/03/11 06:16:30;;;;;;;11.53;8.97;;;;;;;5.16;30.79;98455.66;8349405;28;20235;-66
2022/03/11 06:20:35;;;;;;;16.03;9.13;;;;;;;5.16;30.12;98447.94;8344078;28;20239;-66
2022/03/11 06:24:37;;;;;;;12.43;8.77;;;;;;;4.40;31.09;98454.09;8351902;28;20236;-66
2022/03/11 06:28:42;;;;;;;10.93;8.13;;;;;;;4.63;31.02;98452.97;8352221;28;20303;-65
2022/03/11 06:32:46;;;;;;;12.83;8.97;;;;;;;5.00;30.55;98455.88;8352553;28;20534;-66
2022/03/11 06:36:50;;;;;;;12.80;8.33;;;;;;;4.62;30.65;98457.22;8352040;28;20243;-66
2022/03/11 06:40:54;;;;;;;16.17;8.30;;;;;;;4.78;30.70;98462.16;8351903;28;20445;-66
2022/03/11 06:44:58;;;;;;;16.80;8.60;;;;;;;5.03;30.35;98457.56;8351818;28;20228;-66
2022/03/11 06:49:01;;;;;;;13.97;8.17;;;;;;;4.93;30.27;98467.13;8351563;28;20236;-66
2022/03/11 06:53:04;;;;;;;17.77;9.30;;;;;;;5.53;29.66;98467.94;8351274;28;20430;-66
2022/03/11 06:57:07;;;;;;;10.87;7.80;;;;;;;5.42;29.20;98465.53;8351533;28;20232;-66
2022/03/11 07:01:16;;;;;;;14.20;8.37;;;;;;;5.38;29.16;98462.16;8351249;28;20236;-66
2022/03/11 07:05:20;;;;;;;11.10;7.97;;;;;;;4.96;29.55;98472.19;8351325;28;20258;-66
2022/03/11 07:09:23;;;;;;;10.07;7.93;;;;;;;5.95;28.31;98474.13;8351007;28;20250;-66
2022/03/11 07:13:26;;;;;;;11.20;8.23;;;;;;;5.71;28.44;98474.50;8350966;28;20243;-66
2022/03/11 07:17:31;;;;;;;11.83;7.90;;;;;;;5.54;28.62;98467.06;8349911;28;20239;-65
2022/03/11 07:21:34;;;;;;;11.60;7.97;;;;;;;5.71;28.40;98475.34;8350155;28;20231;-66
2022/03/11 07:25:37;;;;;;;10.77;7.87;;;;;;;5.36;28.31;98471.63;8349036;28;20232;-66
2022/03/11 07:29:40;;;;;;;13.13;8.17;;;;;;;6.17;27.13;98469.44;8350166;28;20236;-65
2022/03/11 07:33:44;;;;;;;12.00;8.00;;;;;;;6.61;26.51;98472.03;8350239;28;20531;-66
2022/03/11 07:37:47;;;;;;;10.13;7.43;;;;;;;6.28;27.08;98469.22;8350093;28;20566;-66
2022/03/11 07:41:51;;;;;;;12.40;7.43;;;;;;;6.22;26.97;98477.91;8349991;28;21902;-66
2022/03/11 07:45:54;;;;;;;9.80;8.07;;;;;;;6.80;26.46;98469.94;8349802;28;20236;-66
2022/03/11 07:49:58;;;;;;;12.70;7.67;;;;;;;6.70;25.68;98471.84;8350142;28;20539;-66
2022/03/11 07:54:01;;;;;;;11.77;7.73;;;;;;;7.25;25.71;98474.94;8349922;28;20421;-65
2022/03/11 07:58:05;;;;;;;9.50;7.17;;;;;;;5.87;26.75;98471.66;8349646;28;20257;-66
2022/03/11 08:02:08;;;;;;;9.30;7.30;;;;;;;6.50;26.17;98461.09;8349227;28;20242;-66
2022/03/11 08:06:13;;;;;;;9.23;7.30;;;;;;;6.80;26.29;98464.78;8349441;28;20236;-66
2022/03/11 08:10:16;;;;;;;8.40;6.83;;;;;;;6.89;25.76;98471.44;8349319;28;20244;-66
2022/03/11 08:14:19;;;;;;;12.50;7.53;;;;;;;7.58;24.92;98472.47;8349240;28;20573;-65
2022/03/11 08:18:23;;;;;;;9.77;7.67;;;;;;;7.61;24.50;98467.22;8349031;28;20239;-66
2022/03/11 08:22:27;;;;;;;10.43;7.20;;;;;;;7.31;24.72;98471.38;8348725;28;20240;-66
2022/03/11 08:26:30;;;;;;;8.23;7.07;;;;;;;7.87;24.38;98458.84;8348573;28;20333;-65
2022/03/11 08:30:34;;;;;;;11.70;7.53;;;;;;;7.81;24.06;98459.84;8347945;28;20235;-66
2022/03/11 08:34:37;;;;;;;9.33;6.93;;;;;;;7.80;23.83;98449.56;8348430;28;20240;-66
2022/03/11 08:39:00;;;;;;;8.67;6.60;;;;;;;8.69;22.78;98448.94;8348351;28;20239;-66
2022/03/11 08:43:03;;;;;;;9.20;6.93;;;;;;;9.29;22.41;98444.53;8348333;28;20244;-66
2022/03/11 08:47:06;;;;;;;9.97;6.70;;;;;;;8.63;22.70;98447.38;8348220;28;20235;-66
2022/03/11 08:51:09;;;;;;;12.37;7.23;;;;;;;8.44;22.80;98447.03;8348333;28;20234;-66
2022/03/11 08:55:14;;;;;;;8.73;6.73;;;;;;;9.55;21.79;98451.44;8348354;28;20228;-66
2022/03/11 08:59:17;;;;;;;9.40;7.20;;;;;;;8.72;22.60;98449.69;8348074;28;20548;-66
2022/03/11 09:03:20;;;;;;;10.53;7.20;;;;;;;9.49;22.19;98446.47;8347665;28;20240;-66
2022/03/11 09:07:28;;;;;;;11.50;6.83;;;;;;;9.16;22.15;98437.16;8348204;28;20231;-65
2022/03/11 09:11:34;;;;;;;9.80;6.67;;;;;;;8.92;21.93;98433.59;8347277;28;20235;-66
2022/03/11 09:15:37;;;;;;;9.07;6.77;;;;;;;11.10;20.53;98427.84;8347612;28;20237;-66
2022/03/11 09:19:45;;;;;;;11.83;6.50;;;;;;;9.93;20.79;98429.47;8347701;28;20295;-66
2022/03/11 09:24:08;;;;;;;9.90;6.40;;;;;;;10.38;19.99;98417.59;8347958;28;20396;-66
2022/03/11 09:28:12;;;;;;;10.27;6.00;;;;;;;11.81;19.00;98413.75;8347550;28;20228;-66
2022/03/11 09:32:15;;;;;;;13.07;6.03;;;;;;;10.66;19.67;98406.19;8347730;28;20232;-66
2022/03/11 09:36:18;;;;;;;9.40;4.97;;;;;;;12.78;25.78;98415.56;8346975;28;20232;-66
2022/03/11 09:40:21;;;;;;;12.80;5.70;;;;;;;11.12;18.25;98413.06;8349884;28;20232;-65
2022/03/11 09:44:26;;;;;;;8.40;5.10;;;;;;;11.38;17.94;98410.31;8353993;28;20327;-65
2022/03/11 09:48:29;;;;;;;7.07;5.57;;;;;;;10.79;17.61;98411.78;8353420;28;20238;-65
2022/03/11 09:52:33;;;;;;;9.93;5.40;;;;;;;10.84;17.97;98412.44;8350140;28;20235;-60
2022/03/11 09:56:43;;;;;;;10.97;5.70;;;;;;;11.63;17.12;98399.78;8353460;28;20232;-59
2022/03/11 10:00:49;;;;;;;7.07;5.30;;;;;;;11.82;16.51;98402.44;8352670;28;20239;-60
2022/03/11 10:04:56;;;;;;;9.83;5.30;;;;;;;10.63;17.30;98394.22;8353349;28;20326;-60
2022/03/11 10:09:33;;;;;;;7.40;4.90;;;;;;;10.77;17.03;98393.69;8352663;28;20232;-61
2022/03/11 10:13:38;;;;;;;6.70;5.00;;;;;;;12.38;16.40;98390.56;8352528;28;20354;-60
2022/03/11 10:17:43;;;;;;;11.27;5.27;;;;;;;11.32;16.63;98383.72;8353031;28;20228;-60
2022/03/11 10:21:47;;;;;;;6.63;5.20;;;;;;;11.20;16.62;98389.44;8352631;28;20240;-60
2022/03/11 10:25:54;;;;;;;8.50;4.90;;;;;;;11.26;16.64;98383.16;8352288;28;20246;-60
2022/03/11 10:30:03;;;;;;;7.23;4.73;;;;;;;11.14;16.32;98385.34;8352190;28;20232;-61
2022/03/11 10:34:16;;;;;;;8.47;4.70;;;;;;;11.36;16.09;98374.09;8352589;28;20251;-61
2022/03/11 10:38:20;;;;;;;12.13;5.03;;;;;;;11.47;15.56;98373.66;8352067;28;20569;-61
2022/03/11 10:42:24;;;;;;;6.13;4.40;;;;;;;12.11;15.70;98372.69;8352032;28;20248;-60
2022/03/11 10:46:27;;;;;;;8.53;4.70;;;;;;;12.04;15.46;98381.66;8352091;28;20236;-61
2022/03/11 10:50:37;;;;;;;7.70;4.50;;;;;;;11.05;16.05;98393.47;8351114;28;20252;-60
2022/03/11 10:54:42;;;;;;;11.43;4.33;;;;;;;12.15;15.48;98366.44;8350838;28;20224;-61
2022/03/11 10:58:45;;;;;;;8.73;6.03;;;;;;;12.08;15.61;98373.66;8351392;28;20236;-61
2022/03/11 11:02:49;;;;;;;8.03;4.70;;;;;;;12.35;15.31;98354.31;8351699;28;20412;-61
2022/03/11 11:06:54;;;;;;;7.77;4.47;;;;;;;11.91;15.36;98355.38;8351242;28;20283;-60
2022/03/11 11:10:57;;;;;;;7.77;4.50;;;;;;;12.47;14.72;98340.75;8351116;28;20228;-61
2022/03/11 11:15:00;;;;;;;10.27;4.43;;;;;;;12.60;14.57;98344.47;8350832;28;20227;-60
2022/03/11 11:19:03;;;;;;;5.83;4.30;;;;;;;12.82;14.87;98341.72;8350672;28;20228;-61
2022/03/11 11:23:09;;;;;;;5.40;4.43;;;;;;;12.25;14.42;98338.31;8350551;28;20232;-61
2022/03/11 11:27:14;;;;;;;7.77;4.43;;;;;;;12.17;15.23;98341.25;8350538;28;20506;-60
2022/03/11 11:31:17;;;;;;;7.93;4.53;;;;;;;12.92;14.71;98329.13;8350393;28;20463;-61
2022/03/11 11:35:26;;;;;;;12.37;4.60;;;;;;;12.05;15.04;98316.69;8350364;28;20232;-60
2022/03/11 11:39:38;;;;;;;8.33;4.60;;;;;;;12.00;14.95;98307.44;8350040;28;20248;-60
2022/03/11 11:43:53;;;;;;;8.97;4.77;;;;;;;12.16;14.85;98292.00;8349581;28;20234;-61
2022/03/11 11:47:56;;;;;;;6.50;4.40;;;;;;;12.05;14.82;98289.88;8349985;28;20235;-61
2022/03/11 11:52:00;;;;;;;7.77;4.30;;;;;;;12.71;14.69;98290.25;8349623;28;20232;-60
2022/03/11 11:56:27;;;;;;;7.20;4.17;;;;;;;11.79;15.00;98285.84;8349328;28;20228;-60
2022/03/11 12:00:35;;;;;;;5.93;4.40;;;;;;;12.40;14.80;98280.47;8349284;28;20243;-60
2022/03/11 12:04:39;;;;;;;8.20;4.50;;;;;;;12.55;14.56;98288.47;8348548;28;20243;-61
2022/03/11 12:08:48;;;;;;;5.80;4.37;;;;;;;13.49;14.25;98271.72;8349466;28;20232;-60
2022/03/11 12:13:04;;;;;;;7.87;4.30;;;;;;;13.02;14.33;98286.19;8349002;28;20634;-60
2022/03/11 12:17:08;;;;;;;5.53;4.60;;;;;;;12.60;14.69;98273.50;8349290;28;20232;-61
2022/03/11 12:21:29;;;;;;;13.40;4.47;;;;;;;13.35;14.57;98269.00;8349084;28;20239;-60
2022/03/11 12:25:34;;;;;;;7.67;5.03;;;;;;;12.79;14.80;98258.69;8340965;28;20231;-61
2022/03/11 12:29:39;;;;;;;6.97;5.07;;;;;;;12.74;15.24;98260.69;8348619;28;20420;-60
2022/03/11 12:33:43;;;;;;;5.97;4.60;;;;;;;13.39;14.92;98257.53;8348077;28;20427;-61
2022/03/11 12:37:46;;;;;;;5.97;4.67;;;;;;;12.95;14.87;98251.00;8347454;28;20517;-60
2022/03/11 12:41:49;;;;;;;7.73;4.33;;;;;;;13.81;14.51;98248.41;8347789;28;20234;-59
2022/03/11 12:45:54;;;;;;;7.20;4.27;;;;;;;13.45;14.26;98241.59;8347206;28;20235;-59
2022/03/11 12:50:02;;;;;;;10.23;4.83;;;;;;;13.82;13.79;98235.31;8347879;28;20434;-59
2022/03/11 12:54:15;;;;;;;6.77;4.50;;;;;;;13.85;14.09;98231.69;8344491;28;20235;-59
2022/03/11 12:58:20;;;;;;;8.70;4.30;;;;;;;14.92;14.01;98235.31;8346856;28;20228;-59
2022/03/11 13:02:24;;;;;;;6.57;4.80;;;;;;;14.20;14.65;98224.59;8346615;28;20236;-59
2022/03/11 13:06:28;;;;;;;7.37;5.00;;;;;;;13.95;14.00;98229.44;8343762;28;20298;-59
2022/03/11 13:10:31;;;;;;;7.97;5.00;;;;;;;14.61;14.21;98218.84;8346978;28;20228;-59
2022/03/11 13:14:39;;;;;;;6.90;4.70;;;;;;;14.41;14.24;98213.88;8343423;28;20231;-59
2022/03/11 13:18:43;;;;;;;8.03;4.97;;;;;;;14.33;14.16;98218.69;8346680;28;20228;-59
2022/03/11 13:22:50;;;;;;;10.37;4.83;;;;;;;13.85;14.49;98208.25;8346747;28;20232;-59
2022/03/11 13:27:06;;;;;;;8.47;5.13;;;;;;;13.13;15.34;98201.59;8347056;28;20244;-66
2022/03/11 13:31:14;;;;;;;6.73;4.97;;;;;;;14.09;15.10;98206.09;8347500;28;20236;-65
2022/03/11 13:35:29;;;;;;;8.73;4.70;;;;;;;13.42;14.82;98189.72;8347570;28;20400;-66
2022/03/11 13:39:32;;;;;;;7.23;4.57;;;;;;;13.39;14.84;98208.09;8346849;28;20243;-65
2022/03/11 13:43:36;;;;;;;9.37;4.83;;;;;;;14.14;14.60;98198.03;8347108;28;20247;-65
2022/03/11 13:47:39;;;;;;;8.87;4.97;;;;;;;14.58;14.42;98189.50;8347313;28;20584;-65
2022/03/11 13:51:48;;;;;;;6.83;4.93;;;;;;;14.30;14.77;98195.41;8347124;28;20535;-66
2022/03/11 13:55:51;;;;;;;9.27;4.80;;;;;;;14.05;15.07;98181.13;8346453;28;20244;-65
2022/03/11 13:59:56;;;;;;;8.67;5.07;;;;;;;13.42;15.11;98180.16;8346507;28;20538;-65
2022/03/11 14:03:59;;;;;;;7.80;4.83;;;;;;;13.70;15.04;98165.66;8347034;28;20234;-65
2022/03/11 14:08:05;;;;;;;7.73;5.40;;;;;;;14.42;14.94;98172.09;8347265;28;20530;-65
2022/03/11 14:12:10;;;;;;;6.07;5.03;;;;;;;13.56;15.37;98170.78;8346532;28;20411;-65
2022/03/11 14:16:13;;;;;;;7.37;5.27;;;;;;;14.03;15.11;98163.00;8346740;28;20273;-65
2022/03/11 14:20:16;;;;;;;7.43;5.40;;;;;;;14.16;15.08;98154.50;8346753;28;20242;-65
2022/03/11 14:24:21;;;;;;;9.43;5.50;;;;;;;14.27;15.13;98150.34;8345427;28;20244;-65
2022/03/11 14:28:25;;;;;;;9.37;5.30;;;;;;;13.97;15.21;98157.28;8351715;28;20243;-65
2022/03/11 14:32:28;;;;;;;12.63;5.87;;;;;;;13.48;15.75;98155.59;8352220;28;20240;-66
2022/03/11 14:36:31;;;;;;;9.47;6.03;;;;;;;13.70;15.88;98152.66;8343195;28;20527;-68
2022/03/11 14:40:37;;;;;;;6.47;5.50;;;;;;;13.29;15.98;98155.69;8351034;28;20247;-66
2022/03/11 14:44:40;;;;;;;7.83;6.00;;;;;;;13.57;16.23;98144.66;8350629;28;20255;-66
2022/03/11 14:48:43;;;;;;;7.67;6.43;;;;;;;13.71;16.38;98137.88;8351160;28;20413;-60
2022/03/11 14:52:48;;;;;;;8.03;5.60;;;;;;;13.64;16.27;98129.56;8350788;28;20232;-61
2022/03/11 14:56:53;;;;;;;9.90;5.93;;;;;;;13.55;16.05;98132.66;8350722;28;20247;-60
2022/03/11 15:00:56;;;;;;;9.03;6.60;;;;;;;13.70;16.28;98137.03;8350306;28;20240;-61
2022/03/11 15:05:00;;;;;;;10.23;6.00;;;;;;;13.43;16.59;98131.56;8350645;28;20228;-61
2022/03/11 15:09:04;;;;;;;12.20;6.87;;;;;;;13.10;17.70;98132.41;8350837;28;20242;-60
2022/03/11 15:13:08;;;;;;;10.47;6.37;;;;;;;13.38;17.60;98121.41;8351149;28;20534;-60
2022/03/11 15:17:11;;;;;;;9.30;6.50;;;;;;;13.30;17.64;98119.19;8350862;28;20538;-60
2022/03/11 15:21:14;;;;;;;8.10;6.63;;;;;;;12.76;18.21;98120.28;8350994;28;20299;-61
2022/03/11 15:25:19;;;;;;;8.97;6.67;;;;;;;12.46;18.57;98113.13;8350632;28;20243;-60
2022/03/11 15:29:24;;;;;;;9.60;6.43;;;;;;;12.89;18.46;98114.38;8350698;28;20322;-61
2022/03/11 15:33:27;;;;;;;13.13;6.87;;;;;;;12.82;18.61;98115.63;8350637;28;20244;-60
2022/03/11 15:37:30;;;;;;;10.47;6.70;;;;;;;12.68;18.76;98116.31;8350217;28;20240;-61
2022/03/11 15:41:33;;;;;;;10.37;6.80;;;;;;;12.70;18.89;98122.28;8349474;28;20538;-61
2022/03/11 15:45:39;;;;;;;7.60;6.80;;;;;;;12.69;19.09;98114.56;8350134;28;20295;-60
2022/03/11 15:49:42;;;;;;;8.33;6.47;;;;;;;12.46;19.44;98111.34;8349896;28;20235;-60
2022/03/11 15:53:45;;;;;;;9.90;6.77;;;;;;;12.50;19.90;98122.44;8349930;28;20263;-60
2022/03/11 15:57:49;;;;;;;7.93;7.10;;;;;;;12.42;19.71;98112.41;8349658;28;20235;-60
2022/03/11 16:01:54;;;;;;;9.10;6.70;;;;;;;12.17;19.91;98119.75;8349360;28;20240;-60
2022/03/11 16:05:57;;;;;;;9.03;6.67;;;;;;;12.19;20.20;98110.13;8349463;28;20227;-60
2022/03/11 16:10:00;;;;;;;10.40;7.30;;;;;;;11.92;20.58;98108.78;8348388;28;20227;-60
2022/03/11 16:14:04;;;;;;;10.03;7.33;;;;;;;11.47;21.03;98111.72;8346665;28;20252;-60
2022/03/11 16:18:28;;;;;;;9.17;6.90;;;;;;;11.48;21.22;98121.16;8348783;28;20239;-63
2022/03/11 16:22:31;;;;;;;12.83;6.77;;;;;;;11.33;21.42;98112.34;8348218;28;20541;-64
2022/03/11 16:26:34;;;;;;;11.30;6.10;;;;;;;11.12;21.77;98114.16;8348475;28;20232;-63
2022/03/11 16:30:37;;;;;;;11.70;6.17;;;;;;;10.99;21.53;98106.06;8348413;28;20291;-64
2022/03/11 16:34:44;;;;;;;10.10;6.67;;;;;;;10.83;21.84;98126.59;8348330;28;20240;-63
2022/03/11 16:38:47;;;;;;;7.27;6.07;;;;;;;11.05;21.76;98112.72;8348432;28;20240;-63
2022/03/11 16:42:50;;;;;;;10.77;6.23;;;;;;;10.76;21.82;98120.03;8346930;28;20534;-64
2022/03/11 16:46:54;;;;;;;7.77;6.27;;;;;;;10.60;22.31;98124.97;8344438;28;20224;-64
2022/03/11 16:50:59;;;;;;;9.03;6.10;;;;;;;10.73;22.31;98122.72;8346618;28;20230;-64
2022/03/11 16:55:02;;;;;;;7.80;6.27;;;;;;;10.39;22.64;98111.19;8344819;28;20522;-64
2022/03/11 16:59:05;;;;;;;12.80;6.10;;;;;;;10.38;22.47;98125.06;8344604;28;20250;-63
2022/03/11 17:03:11;;;;;;;7.63;6.50;;;;;;;10.23;22.75;98138.59;8347410;28;20239;-63
2022/03/11 17:07:16;;;;;;;7.50;6.67;;;;;;;10.28;22.62;98137.50;8347917;28;20396;-63
2022/03/11 17:11:19;;;;;;;11.80;6.60;;;;;;;10.13;22.58;98143.28;8347693;28;20534;-64
2022/03/11 17:15:22;;;;;;;9.50;5.90;;;;;;;10.14;23.00;98155.31;8348181;28;20507;-65
2022/03/11 17:19:25;;;;;;;9.43;6.23;;;;;;;10.31;22.92;98141.72;8347545;28;20228;-64
2022/03/11 17:23:29;;;;;;;12.83;6.17;;;;;;;10.62;22.99;98136.13;8347685;28;20401;-63
2022/03/11 17:27:32;;;;;;;10.27;6.50;;;;;;;10.26;23.15;98146.22;8347266;28;20234;-64
2022/03/11 17:31:35;;;;;;;13.57;6.03;;;;;;;10.55;22.97;98147.66;8347569;28;20232;-64
2022/03/11 17:35:42;;;;;;;13.00;6.07;;;;;;;10.02;23.36;98150.63;8347424;28;20232;-64
2022/03/11 17:39:46;;;;;;;10.17;6.93;;;;;;;9.63;23.50;98154.66;8347288;28;20235;-64
2022/03/11 17:43:50;;;;;;;13.33;6.13;;;;;;;9.62;23.26;98168.50;8347262;28;20235;-64
2022/03/11 17:47:53;;;;;;;10.00;5.80;;;;;;;9.80;22.97;98161.78;8347033;28;20252;-64
2022/03/11 17:51:58;;;;;;;8.50;5.60;;;;;;;9.61;23.06;98153.88;8347198;28;20550;-64
2022/03/11 17:56:03;;;;;;;7.57;5.70;;;;;;;9.79;22.87;98157.53;8346966;28;20235;-64
2022/03/11 18:00:07;;;;;;;10.73;6.30;;;;;;;9.09;22.54;98163.53;8347538;28;20232;-64
2022/03/11 18:04:10;;;;;;;10.70;5.53;;;;;;;8.96;22.99;98170.88;8353491;28;20304;-64
2022/03/11 18:08:14;;;;;;;9.97;5.47;;;;;;;9.02;22.80;98169.81;8353103;28;20235;-63
2022/03/11 18:12:21;;;;;;;15.57;5.73;;;;;;;9.14;22.13;98177.16;8353391;28;20572;-64
2022/03/11 18:16:24;;;;;;;11.90;5.90;;;;;;;9.05;22.21;98173.13;8353061;28;20238;-64
2022/03/11 18:20:28;;;;;;;14.20;7.40;;;;;;;8.98;22.25;98179.41;8353052;28;20242;-64
2022/03/11 18:24:31;;;;;;;14.53;7.10;;;;;;;9.41;21.99;98179.66;8352116;28;20239;-66
2022/03/11 18:28:35;;;;;;;12.67;7.47;;;;;;;9.18;21.83;98179.56;8353069;28;20232;-64
2022/03/11 18:32:38;;;;;;;7.80;5.83;;;;;;;9.16;21.97;98188.28;8352616;28;20538;-65
2022/03/11 18:36:41;;;;;;;7.97;5.40;;;;;;;8.79;22.14;98181.75;8352654;28;20430;-64
2022/03/11 18:40:45;;;;;;;12.30;5.83;;;;;;;8.58;22.25;98181.56;8352613;28;20239;-64
2022/03/11 18:44:49;;;;;;;10.03;5.77;;;;;;;8.37;22.55;98188.25;8352406;28;20236;-64
2022/03/11 18:48:52;;;;;;;11.00;6.20;;;;;;;8.69;22.07;98188.13;8352195;28;20227;-64
2022/03/11 18:52:55;;;;;;;10.53;6.03;;;;;;;8.49;22.04;98196.53;8352359;28;20236;-64
2022/03/11 18:56:59;;;;;;;11.40;6.10;;;;;;;8.31;22.26;98192.78;8352287;28;20228;-64
2022/03/11 19:01:04;;;;;;;9.77;5.87;;;;;;;7.95;22.62;98193.00;8351775;28;20224;-64
2022/03/11 19:05:08;;;;;;;7.93;5.60;;;;;;;8.00;22.65;98197.13;8351938;28;20228;-64
2022/03/11 19:09:12;;;;;;;10.50;5.83;;;;;;;8.30;22.39;98199.69;8351320;28;20234;-64